sensor_id;sensor_type;location;lat;lon;timestamp;pressure;altitude;pressure_sealevel;temperature;humidity
18850;BME280;4989;48.772;9.154;2023-04-15T00:01:09;97020.63;;;9.17;78.17
18850;BME280;4989;48.772;9.154;2023-04-15T00:06:13;97023.53;;;9.71;74.75
18850;BME280;4989;48.772;9.154;2023-04-15T00:11:17;97011.50;;;9.72;73.33
18850;BME280;4989;48.772;9.154;2023-04-15T00:16:19;97024.16;;;9.40;73.66
18850;BME280;4989;48.772;9.154;2023-04-15T00:21:22;97024.00;;;8.83;75.98
18850;BME280;4989;48.772;9.154;2023-04-15T00:26:25;97022.03;;;8.58;77.85
18850;BME280;4989;48.772;9.154;2023-04-15T00:31:31;97012.06;;;8.55;80.96
18850;BME280;4989;48.772;9.154;2023-04-15T00:36:34;97018.59;;;9.09;78.06
18850;BME280;4989;48.772;9.154;2023-04-15T00:41:37;97009.69;;;9.69;75.18
18850;BME280;4989;48.772;9.154;2023-04-15T00:46:41;97007.94;;;9.27;75.34
18850;BME280;4989;48.772;9.154;2023-04-15T00:51:45;97012.75;;;8.85;79.07
18850;BME280;4989;48.772;9.154;2023-04-15T00:56:48;97013.03;;;8.61;79.61
18850;BME280;4989;48.772;9.154;2023-04-15T01:01:51;97021.69;;;8.56;82.93
18850;BME280;4989;48.772;9.154;2023-04-15T01:06:54;97017.59;;;8.64;82.18
18850;BME280;4989;48.772;9.154;2023-04-15T01:11:57;97013.25;;;8.41;80.88
18850;BME280;4989;48.772;9.154;2023-04-15T01:17:00;97008.19;;;8.82;88.39
18850;BME280;4989;48.772;9.154;2023-04-15T01:22:03;96999.72;;;9.05;81.13
18850;BME280;4989;48.772;9.154;2023-04-15T01:27:07;97009.31;;;9.45;84.10
18850;BME280;4989;48.772;9.154;2023-04-15T01:32:10;97013.53;;;9.46;76.53
18850;BME280;4989;48.772;9.154;2023-04-15T01:37:13;97008.19;;;8.69;77.43
18850;BME280;4989;48.772;9.154;2023-04-15T01:42:17;97011.66;;;8.15;80.31
18850;BME280;4989;48.772;9.154;2023-04-15T01:47:20;97016.00;;;8.38;83.11
18850;BME280;4989;48.772;9.154;2023-04-15T01:52:23;97013.81;;;8.62;78.69
18850;BME280;4989;48.772;9.154;2023-04-15T01:57:26;97009.31;;;8.30;80.41
18850;BME280;4989;48.772;9.154;2023-04-15T02:02:29;97016.34;;;7.98;83.26
18850;BME280;4989;48.772;9.154;2023-04-15T02:07:32;97008.84;;;8.18;97.03
18850;BME280;4989;48.772;9.154;2023-04-15T02:12:36;97015.97;;;8.12;88.70
18850;BME280;4989;48.772;9.154;2023-04-15T02:17:40;97013.25;;;8.12;85.83
18850;BME280;4989;48.772;9.154;2023-04-15T02:22:49;97007.31;;;8.17;85.17
18850;BME280;4989;48.772;9.154;2023-04-15T02:27:52;96998.94;;;8.41;87.81
18850;BME280;4989;48.772;9.154;2023-04-15T02:32:55;97006.91;;;8.32;86.39
18850;BME280;4989;48.772;9.154;2023-04-15T02:37:59;96992.91;;;8.62;83.10
18850;BME280;4989;48.772;9.154;2023-04-15T02:43:02;96999.56;;;7.90;86.63
18850;BME280;4989;48.772;9.154;2023-04-15T02:48:07;96998.78;;;7.61;88.36
18850;BME280;4989;48.772;9.154;2023-04-15T02:53:10;96998.97;;;7.53;89.77
18850;BME280;4989;48.772;9.154;2023-04-15T02:58:14;96994.16;;;7.28;87.10
18850;BME280;4989;48.772;9.154;2023-04-15T03:03:17;96991.38;;;7.32;91.41
18850;BME280;4989;48.772;9.154;2023-04-15T03:08:20;96988.25;;;7.79;90.57
18850;BME280;4989;48.772;9.154;2023-04-15T03:13:22;96986.38;;;8.47;82.63
18850;BME280;4989;48.772;9.154;2023-04-15T03:18:25;96987.31;;;8.27;79.99
18850;BME280;4989;48.772;9.154;2023-04-15T03:23:29;96991.19;;;7.85;84.97
18850;BME280;4989;48.772;9.154;2023-04-15T03:28:32;96988.72;;;7.61;86.69
18850;BME280;4989;48.772;9.154;2023-04-15T03:33:36;96988.66;;;7.32;87.02
18850;BME280;4989;48.772;9.154;2023-04-15T03:38:39;96993.31;;;6.99;87.49
18850;BME280;4989;48.772;9.154;2023-04-15T03:43:42;96998.06;;;6.95;87.64
18850;BME280;4989;48.772;9.154;2023-04-15T03:48:45;96992.25;;;7.13;97.03
18850;BME280;4989;48.772;9.154;2023-04-15T03:53:48;96989.78;;;7.34;87.80
18850;BME280;4989;48.772;9.154;2023-04-15T03:58:50;96997.91;;;7.18;91.38
18850;BME280;4989;48.772;9.154;2023-04-15T04:03:53;96997.13;;;7.34;94.47
18850;BME280;4989;48.772;9.154;2023-04-15T04:08:56;96997.13;;;7.34;87.60
18850;BME280;4989;48.772;9.154;2023-04-15T04:13:59;96997.41;;;7.23;97.13
18850;BME280;4989;48.772;9.154;2023-04-15T04:19:01;97014.44;;;7.04;89.05
18850;BME280;4989;48.772;9.154;2023-04-15T04:24:04;97010.22;;;7.03;95.44
18850;BME280;4989;48.772;9.154;2023-04-15T04:29:07;97012.25;;;7.15;89.70
18850;BME280;4989;48.772;9.154;2023-04-15T04:34:10;97009.22;;;7.13;90.86
18850;BME280;4989;48.772;9.154;2023-04-15T04:39:13;97018.25;;;7.06;99.04
18850;BME280;4989;48.772;9.154;2023-04-15T04:44:15;97017.47;;;7.22;92.24
18850;BME280;4989;48.772;9.154;2023-04-15T04:49:18;97021.69;;;7.40;88.21
18850;BME280;4989;48.772;9.154;2023-04-15T04:54:20;97024.22;;;6.81;90.63
18850;BME280;4989;48.772;9.154;2023-04-15T04:59:23;97028.44;;;6.82;91.74
18850;BME280;4989;48.772;9.154;2023-04-15T05:04:26;97024.81;;;6.89;100.00
18850;BME280;4989;48.772;9.154;2023-04-15T05:09:29;97026.06;;;7.50;95.54
18850;BME280;4989;48.772;9.154;2023-04-15T05:14:34;97028.63;;;7.08;88.44
18850;BME280;4989;48.772;9.154;2023-04-15T05:19:36;97036.66;;;7.28;95.53
18850;BME280;4989;48.772;9.154;2023-04-15T05:24:39;97033.22;;;7.11;88.79
18850;BME280;4989;48.772;9.154;2023-04-15T05:29:41;97029.63;;;6.81;89.25
18850;BME280;4989;48.772;9.154;2023-04-15T05:34:44;97030.66;;;6.87;91.72
18850;BME280;4989;48.772;9.154;2023-04-15T05:39:47;97032.81;;;6.93;89.27
18850;BME280;4989;48.772;9.154;2023-04-15T05:44:52;97023.81;;;7.77;98.09
18850;BME280;4989;48.772;9.154;2023-04-15T05:49:55;97024.09;;;8.54;93.96
18850;BME280;4989;48.772;9.154;2023-04-15T05:54:58;97029.75;;;8.98;82.40
18850;BME280;4989;48.772;9.154;2023-04-15T06:00:01;97022.38;;;9.59;81.00
18850;BME280;4989;48.772;9.154;2023-04-15T06:05:10;97023.22;;;10.03;75.32
18850;BME280;4989;48.772;9.154;2023-04-15T06:10:13;97031.56;;;10.53;71.70
18850;BME280;4989;48.772;9.154;2023-04-15T06:15:15;97025.56;;;10.89;77.06
18850;BME280;4989;48.772;9.154;2023-04-15T06:20:18;97034.00;;;10.91;84.29
18850;BME280;4989;48.772;9.154;2023-04-15T06:25:21;97039.78;;;11.03;75.86
18850;BME280;4989;48.772;9.154;2023-04-15T06:30:24;97048.03;;;11.30;68.58
18850;BME280;4989;48.772;9.154;2023-04-15T06:35:27;97049.50;;;11.72;69.46
18850;BME280;4989;48.772;9.154;2023-04-15T06:40:29;97050.59;;;12.02;76.54
18850;BME280;4989;48.772;9.154;2023-04-15T06:45:32;97048.47;;;12.33;67.50
18850;BME280;4989;48.772;9.154;2023-04-15T06:50:35;97055.09;;;12.60;66.93
18850;BME280;4989;48.772;9.154;2023-04-15T06:55:38;97064.78;;;12.52;68.57
18850;BME280;4989;48.772;9.154;2023-04-15T07:00:41;97063.22;;;12.78;63.46
18850;BME280;4989;48.772;9.154;2023-04-15T07:05:44;97062.34;;;13.48;61.11
18850;BME280;4989;48.772;9.154;2023-04-15T07:10:47;97064.03;;;13.69;57.16
18850;BME280;4989;48.772;9.154;2023-04-15T07:15:49;97057.09;;;13.68;59.64
18850;BME280;4989;48.772;9.154;2023-04-15T07:20:52;97048.69;;;13.48;54.96
18850;BME280;4989;48.772;9.154;2023-04-15T07:25:55;97049.09;;;13.80;55.89
18850;BME280;4989;48.772;9.154;2023-04-15T07:30:58;97043.50;;;14.52;54.60
18850;BME280;4989;48.772;9.154;2023-04-15T07:36:01;97041.38;;;15.21;55.74
18850;BME280;4989;48.772;9.154;2023-04-15T07:41:04;97040.81;;;15.17;55.91
18850;BME280;4989;48.772;9.154;2023-04-15T07:46:06;97041.09;;;15.19;53.55
18850;BME280;4989;48.772;9.154;2023-04-15T07:51:09;97043.09;;;15.03;54.71
18850;BME280;4989;48.772;9.154;2023-04-15T07:56:12;97051.81;;;14.57;55.02
18850;BME280;4989;48.772;9.154;2023-04-15T08:01:15;97049.13;;;14.33;53.99
18850;BME280;4989;48.772;9.154;2023-04-15T08:06:17;97041.47;;;14.61;55.23
18850;BME280;4989;48.772;9.154;2023-04-15T08:11:21;97039.13;;;15.19;51.94
18850;BME280;4989;48.772;9.154;2023-04-15T08:16:25;97039.69;;;16.46;52.63
18850;BME280;4989;48.772;9.154;2023-04-15T08:21:31;97044.84;;;17.33;48.69
18850;BME280;4989;48.772;9.154;2023-04-15T08:26:34;97055.13;;;17.38;46.33
18850;BME280;4989;48.772;9.154;2023-04-15T08:31:37;97046.63;;;17.36;47.58
18850;BME280;4989;48.772;9.154;2023-04-15T08:36:40;97042.25;;;18.10;46.57
18850;BME280;4989;48.772;9.154;2023-04-15T08:41:50;97036.13;;;19.16;43.73
18850;BME280;4989;48.772;9.154;2023-04-15T08:46:54;97034.78;;;19.68;42.74
18850;BME280;4989;48.772;9.154;2023-04-15T08:51:59;97047.28;;;19.80;42.58
18850;BME280;4989;48.772;9.154;2023-04-15T08:57:01;97040.72;;;21.62;39.18
18850;BME280;4989;48.772;9.154;2023-04-15T09:02:05;97043.59;;;22.19;42.24
18850;BME280;4989;48.772;9.154;2023-04-15T09:07:08;97047.16;;;21.95;37.30
18850;BME280;4989;48.772;9.154;2023-04-15T09:12:11;97045.00;;;22.96;36.78
18850;BME280;4989;48.772;9.154;2023-04-15T09:17:18;97048.13;;;23.77;35.86
18850;BME280;4989;48.772;9.154;2023-04-15T09:22:22;97050.91;;;23.91;39.21
18850;BME280;4989;48.772;9.154;2023-04-15T09:27:25;97055.13;;;24.05;36.88
18850;BME280;4989;48.772;9.154;2023-04-15T09:32:27;97065.56;;;24.39;34.16
18850;BME280;4989;48.772;9.154;2023-04-15T09:37:36;97066.16;;;23.58;35.17
18850;BME280;4989;48.772;9.154;2023-04-15T09:42:59;97063.91;;;22.03;37.96
18850;BME280;4989;48.772;9.154;2023-04-15T09:48:20;97071.25;;;22.57;39.59
18850;BME280;4989;48.772;9.154;2023-04-15T09:53:24;97075.69;;;22.66;41.31
18850;BME280;4989;48.772;9.154;2023-04-15T09:58:30;97065.91;;;21.04;43.83
18850;BME280;4989;48.772;9.154;2023-04-15T10:03:34;97075.41;;;20.26;45.07
18850;BME280;4989;48.772;9.154;2023-04-15T10:08:39;97079.53;;;20.02;47.89
18850;BME280;4989;48.772;9.154;2023-04-15T10:13:43;97084.34;;;19.90;43.45
18850;BME280;4989;48.772;9.154;2023-04-15T10:18:50;97085.72;;;20.20;41.79
18850;BME280;4989;48.772;9.154;2023-04-15T10:23:57;97082.63;;;19.82;44.87
18850;BME280;4989;48.772;9.154;2023-04-15T10:29:00;97089.41;;;19.58;45.02
18850;BME280;4989;48.772;9.154;2023-04-15T10:34:03;97092.19;;;21.46;42.22
18850;BME280;4989;48.772;9.154;2023-04-15T10:44:40;97096.56;;;22.85;38.63
18850;BME280;4989;48.772;9.154;2023-04-15T10:49:49;97105.41;;;23.48;40.62
18850;BME280;4989;48.772;9.154;2023-04-15T10:55:13;97098.66;;;22.23;42.72
18850;BME280;4989;48.772;9.154;2023-04-15T11:00:20;97101.06;;;20.68;47.29
18850;BME280;4989;48.772;9.154;2023-04-15T11:15:47;97114.91;;;18.52;46.22
18850;BME280;4989;48.772;9.154;2023-04-15T11:21:02;97103.31;;;20.69;42.92
18850;BME280;4989;48.772;9.154;2023-04-15T11:26:07;97101.75;;;23.53;42.64
18850;BME280;4989;48.772;9.154;2023-04-15T11:31:13;97102.56;;;23.81;38.55
18850;BME280;4989;48.772;9.154;2023-04-15T11:36:16;97106.66;;;22.26;39.35
18850;BME280;4989;48.772;9.154;2023-04-15T11:41:25;97107.75;;;21.74;39.49
18850;BME280;4989;48.772;9.154;2023-04-15T11:46:29;97107.00;;;20.83;42.46
18850;BME280;4989;48.772;9.154;2023-04-15T11:51:34;97128.25;;;19.60;49.55
18850;BME280;4989;48.772;9.154;2023-04-15T11:56:37;97125.91;;;18.58;46.50
18850;BME280;4989;48.772;9.154;2023-04-15T12:01:40;97128.88;;;18.48;51.10
18850;BME280;4989;48.772;9.154;2023-04-15T12:06:48;97128.00;;;18.80;45.33
18850;BME280;4989;48.772;9.154;2023-04-15T12:11:55;97142.81;;;19.21;46.31
18850;BME280;4989;48.772;9.154;2023-04-15T12:17:05;97141.81;;;20.97;48.18
18850;BME280;4989;48.772;9.154;2023-04-15T12:22:10;97152.66;;;20.37;43.22
18850;BME280;4989;48.772;9.154;2023-04-15T12:27:15;97157.63;;;20.44;40.59
18850;BME280;4989;48.772;9.154;2023-04-15T12:32:18;97177.06;;;20.80;45.87
18850;BME280;4989;48.772;9.154;2023-04-15T12:37:22;97214.75;;;19.52;51.41
18850;BME280;4989;48.772;9.154;2023-04-15T12:42:25;97225.56;;;18.67;51.52
18850;BME280;4989;48.772;9.154;2023-04-15T12:47:27;97238.28;;;18.11;58.38
18850;BME280;4989;48.772;9.154;2023-04-15T12:52:30;97257.56;;;17.27;57.23
18850;BME280;4989;48.772;9.154;2023-04-15T12:57:33;97248.66;;;16.85;58.51
18850;BME280;4989;48.772;9.154;2023-04-15T13:02:36;97256.31;;;16.81;60.88
18850;BME280;4989;48.772;9.154;2023-04-15T13:07:39;97254.13;;;16.65;54.64
18850;BME280;4989;48.772;9.154;2023-04-15T13:12:42;97248.28;;;16.98;51.62
18850;BME280;4989;48.772;9.154;2023-04-15T13:17:45;97254.59;;;17.04;50.39
18850;BME280;4989;48.772;9.154;2023-04-15T13:22:47;97261.06;;;16.81;53.17
18850;BME280;4989;48.772;9.154;2023-04-15T13:27:50;97276.59;;;16.69;52.60
18850;BME280;4989;48.772;9.154;2023-04-15T13:32:53;97278.19;;;16.55;50.22
18850;BME280;4989;48.772;9.154;2023-04-15T13:37:55;97282.09;;;16.69;51.26
18850;BME280;4989;48.772;9.154;2023-04-15T13:42:58;97279.38;;;16.89;53.55
18850;BME280;4989;48.772;9.154;2023-04-15T13:48:01;97292.06;;;17.28;44.22
18850;BME280;4989;48.772;9.154;2023-04-15T13:53:04;97292.06;;;17.80;51.28
18850;BME280;4989;48.772;9.154;2023-04-15T13:58:08;97293.13;;;17.62;43.81
18850;BME280;4989;48.772;9.154;2023-04-15T14:03:11;97291.34;;;17.33;48.49
18850;BME280;4989;48.772;9.154;2023-04-15T14:08:14;97294.41;;;17.40;47.95
18850;BME280;4989;48.772;9.154;2023-04-15T14:13:16;97290.59;;;17.32;44.98
18850;BME280;4989;48.772;9.154;2023-04-15T14:18:21;97288.81;;;17.29;52.67
18850;BME280;4989;48.772;9.154;2023-04-15T14:23:23;97317.53;;;17.08;48.71
18850;BME280;4989;48.772;9.154;2023-04-15T14:28:26;97327.28;;;17.09;53.57
18850;BME280;4989;48.772;9.154;2023-04-15T14:33:28;97331.25;;;17.28;54.34
18850;BME280;4989;48.772;9.154;2023-04-15T14:38:33;97334.91;;;17.20;51.23
18850;BME280;4989;48.772;9.154;2023-04-15T14:43:39;97356.72;;;17.08;49.81
18850;BME280;4989;48.772;9.154;2023-04-15T14:48:42;97360.84;;;16.63;49.23
18850;BME280;4989;48.772;9.154;2023-04-15T14:53:45;97363.78;;;16.59;45.97
18850;BME280;4989;48.772;9.154;2023-04-15T14:58:48;97382.25;;;16.59;47.90
18850;BME280;4989;48.772;9.154;2023-04-15T15:03:51;97383.56;;;16.63;55.15
18850;BME280;4989;48.772;9.154;2023-04-15T15:08:54;97397.59;;;16.51;53.88
18850;BME280;4989;48.772;9.154;2023-04-15T15:13:57;97406.66;;;16.57;56.33
18850;BME280;4989;48.772;9.154;2023-04-15T15:19:00;97396.47;;;16.42;49.72
18850;BME280;4989;48.772;9.154;2023-04-15T15:24:04;97408.03;;;16.32;52.20
18850;BME280;4989;48.772;9.154;2023-04-15T15:29:07;97415.09;;;15.79;50.89
18850;BME280;4989;48.772;9.154;2023-04-15T15:34:10;97415.03;;;15.49;50.40
18850;BME280;4989;48.772;9.154;2023-04-15T15:39:13;97418.22;;;15.24;52.87
18850;BME280;4989;48.772;9.154;2023-04-15T15:44:16;97422.59;;;15.06;55.95
18850;BME280;4989;48.772;9.154;2023-04-15T15:49:18;97425.69;;;14.99;53.15
18850;BME280;4989;48.772;9.154;2023-04-15T15:54:21;97429.59;;;15.07;52.76
18850;BME280;4989;48.772;9.154;2023-04-15T15:59:24;97439.88;;;15.12;52.56
18850;BME280;4989;48.772;9.154;2023-04-15T16:04:27;97437.91;;;14.89;53.58
18850;BME280;4989;48.772;9.154;2023-04-15T16:09:31;97448.97;;;15.19;67.89
18850;BME280;4989;48.772;9.154;2023-04-15T16:14:33;97465.31;;;15.37;61.62
18850;BME280;4989;48.772;9.154;2023-04-15T16:19:36;97465.38;;;15.67;58.33
18850;BME280;4989;48.772;9.154;2023-04-15T16:24:39;97484.59;;;16.06;68.54
18850;BME280;4989;48.772;9.154;2023-04-15T16:29:42;97494.06;;;16.05;62.35
18850;BME280;4989;48.772;9.154;2023-04-15T16:34:44;97505.63;;;15.61;63.53
18850;BME280;4989;48.772;9.154;2023-04-15T16:39:47;97503.59;;;15.22;64.75
18850;BME280;4989;48.772;9.154;2023-04-15T16:44:50;97519.28;;;14.70;67.92
18850;BME280;4989;48.772;9.154;2023-04-15T16:49:52;97522.22;;;14.30;71.24
18850;BME280;4989;48.772;9.154;2023-04-15T16:54:55;97531.03;;;14.15;71.58
18850;BME280;4989;48.772;9.154;2023-04-15T16:59:58;97547.91;;;14.32;74.29
18850;BME280;4989;48.772;9.154;2023-04-15T17:05:01;97548.66;;;14.24;73.71
18850;BME280;4989;48.772;9.154;2023-04-15T17:10:04;97556.19;;;13.55;79.37
18850;BME280;4989;48.772;9.154;2023-04-15T17:15:08;97563.44;;;13.49;80.40
18850;BME280;4989;48.772;9.154;2023-04-15T17:20:11;97576.75;;;13.06;86.36
18850;BME280;4989;48.772;9.154;2023-04-15T17:25:14;97577.25;;;13.14;85.38
18850;BME280;4989;48.772;9.154;2023-04-15T17:30:17;97583.78;;;13.48;82.76
18850;BME280;4989;48.772;9.154;2023-04-15T17:35:20;97601.38;;;13.47;81.94
18850;BME280;4989;48.772;9.154;2023-04-15T17:40:24;97605.28;;;13.37;80.70
18850;BME280;4989;48.772;9.154;2023-04-15T17:45:28;97610.50;;;13.22;81.44
18850;BME280;4989;48.772;9.154;2023-04-15T17:50:31;97620.44;;;12.84;84.27
18850;BME280;4989;48.772;9.154;2023-04-15T17:55:34;97627.13;;;12.83;88.22
18850;BME280;4989;48.772;9.154;2023-04-15T18:00:37;97634.53;;;12.61;87.06
18850;BME280;4989;48.772;9.154;2023-04-15T18:05:40;97628.31;;;12.38;92.96
18850;BME280;4989;48.772;9.154;2023-04-15T18:10:43;97635.41;;;11.88;95.94
18850;BME280;4989;48.772;9.154;2023-04-15T18:15:46;97651.94;;;12.07;100.00
18850;BME280;4989;48.772;9.154;2023-04-15T18:20:50;97649.38;;;12.38;92.71
18850;BME280;4989;48.772;9.154;2023-04-15T18:25:53;97658.78;;;12.81;91.82
18850;BME280;4989;48.772;9.154;2023-04-15T18:30:56;97671.03;;;12.42;97.32
18850;BME280;4989;48.772;9.154;2023-04-15T18:35:59;97670.41;;;12.37;96.17
18850;BME280;4989;48.772;9.154;2023-04-15T18:41:03;97687.72;;;12.44;96.56
18850;BME280;4989;48.772;9.154;2023-04-15T18:46:07;97685.16;;;12.84;100.00
18850;BME280;4989;48.772;9.154;2023-04-15T18:51:13;97695.81;;;12.69;91.31
18850;BME280;4989;48.772;9.154;2023-04-15T18:56:16;97712.00;;;12.51;94.32
18850;BME280;4989;48.772;9.154;2023-04-15T19:01:19;97722.91;;;12.51;96.14
18850;BME280;4989;48.772;9.154;2023-04-15T19:06:21;97713.81;;;12.67;91.59
18850;BME280;4989;48.772;9.154;2023-04-15T19:11:25;97724.91;;;12.37;95.33
18850;BME280;4989;48.772;9.154;2023-04-15T19:16:28;97724.53;;;12.48;93.69
18850;BME280;4989;48.772;9.154;2023-04-15T19:21:31;97728.59;;;12.44;97.44
18850;BME280;4989;48.772;9.154;2023-04-15T19:26:35;97732.06;;;12.57;94.41
18850;BME280;4989;48.772;9.154;2023-04-15T19:31:38;97746.00;;;12.59;97.00
18850;BME280;4989;48.772;9.154;2023-04-15T19:36:41;97746.41;;;12.70;91.57
18850;BME280;4989;48.772;9.154;2023-04-15T19:41:44;97750.00;;;12.32;94.59
18850;BME280;4989;48.772;9.154;2023-04-15T19:46:47;97755.03;;;11.96;97.70
18850;BME280;4989;48.772;9.154;2023-04-15T19:51:51;97751.97;;;12.06;97.72
18850;BME280;4989;48.772;9.154;2023-04-15T19:56:53;97751.97;;;11.94;99.49
18850;BME280;4989;48.772;9.154;2023-04-15T20:01:56;97760.91;;;12.07;97.85
18850;BME280;4989;48.772;9.154;2023-04-15T20:06:59;97758.41;;;12.00;99.33
18850;BME280;4989;48.772;9.154;2023-04-15T20:12:02;97763.47;;;12.49;94.44
18850;BME280;4989;48.772;9.154;2023-04-15T20:17:25;97749.13;;;12.35;93.72
18850;BME280;4989;48.772;9.154;2023-04-15T20:22:27;97751.06;;;12.48;95.73
18850;BME280;4989;48.772;9.154;2023-04-15T20:27:30;97752.94;;;12.38;97.08
18850;BME280;4989;48.772;9.154;2023-04-15T20:32:33;97762.19;;;12.41;94.34
18850;BME280;4989;48.772;9.154;2023-04-15T20:37:42;97761.50;;;12.62;94.41
18850;BME280;4989;48.772;9.154;2023-04-15T20:42:46;97758.50;;;13.48;95.05
18850;BME280;4989;48.772;9.154;2023-04-15T20:47:49;97757.72;;;12.81;89.34
18850;BME280;4989;48.772;9.154;2023-04-15T20:52:52;97765.63;;;13.45;90.18
18850;BME280;4989;48.772;9.154;2023-04-15T20:57:54;97771.00;;;13.14;89.10
18850;BME280;4989;48.772;9.154;2023-04-15T21:02:58;97768.63;;;12.81;90.01
18850;BME280;4989;48.772;9.154;2023-04-15T21:08:01;97781.09;;;12.70;92.84
18850;BME280;4989;48.772;9.154;2023-04-15T21:13:04;97776.09;;;12.68;94.01
18850;BME280;4989;48.772;9.154;2023-04-15T21:18:08;97784.66;;;12.79;91.07
18850;BME280;4989;48.772;9.154;2023-04-15T21:23:10;97787.16;;;12.26;97.48
18850;BME280;4989;48.772;9.154;2023-04-15T21:28:14;97796.28;;;12.45;97.07
18850;BME280;4989;48.772;9.154;2023-04-15T21:33:17;97795.22;;;12.43;95.22
18850;BME280;4989;48.772;9.154;2023-04-15T21:38:21;97813.13;;;12.78;100.00
18850;BME280;4989;48.772;9.154;2023-04-15T21:43:24;97811.56;;;12.43;94.61
18850;BME280;4989;48.772;9.154;2023-04-15T21:48:27;97816.25;;;12.42;94.63
18850;BME280;4989;48.772;9.154;2023-04-15T21:53:30;97818.66;;;12.53;96.46
18850;BME280;4989;48.772;9.154;2023-04-15T21:58:33;97825.47;;;12.83;93.25
18850;BME280;4989;48.772;9.154;2023-04-15T22:03:35;97827.31;;;12.73;92.65
18850;BME280;4989;48.772;9.154;2023-04-15T22:08:39;97834.53;;;12.67;94.13
18850;BME280;4989;48.772;9.154;2023-04-15T22:13:58;97834.44;;;12.58;98.17
18850;BME280;4989;48.772;9.154;2023-04-15T22:19:01;97838.81;;;12.55;94.63
18850;BME280;4989;48.772;9.154;2023-04-15T22:24:04;97849.91;;;12.61;94.39
18850;BME280;4989;48.772;9.154;2023-04-15T22:29:27;97845.34;;;12.58;95.43
18850;BME280;4989;48.772;9.154;2023-04-15T22:34:30;97859.88;;;12.42;98.50
18850;BME280;4989;48.772;9.154;2023-04-15T22:39:35;97867.50;;;12.60;97.24
18850;BME280;4989;48.772;9.154;2023-04-15T22:44:38;97858.19;;;12.70;94.25
18850;BME280;4989;48.772;9.154;2023-04-15T22:49:41;97866.41;;;12.57;97.32
18850;BME280;4989;48.772;9.154;2023-04-15T22:54:44;97870.56;;;12.62;94.88
18850;BME280;4989;48.772;9.154;2023-04-15T22:59:46;97869.38;;;12.98;92.33
18850;BME280;4989;48.772;9.154;2023-04-15T23:04:49;97871.19;;;12.66;92.80
18850;BME280;4989;48.772;9.154;2023-04-15T23:09:52;97874.25;;;12.68;99.55
18850;BME280;4989;48.772;9.154;2023-04-15T23:14:54;97895.28;;;12.93;93.31
18850;BME280;4989;48.772;9.154;2023-04-15T23:19:57;97885.16;;;12.55;93.00
18850;BME280;4989;48.772;9.154;2023-04-15T23:25:00;97886.47;;;12.64;95.39
18850;BME280;4989;48.772;9.154;2023-04-15T23:30:03;97887.22;;;12.26;94.82
18850;BME280;4989;48.772;9.154;2023-04-15T23:35:06;97903.03;;;12.18;96.89
18850;BME280;4989;48.772;9.154;2023-04-15T23:40:10;97902.81;;;12.51;100.00
18850;BME280;4989;48.772;9.154;2023-04-15T23:45:12;97904.47;;;12.48;94.97
18850;BME280;4989;48.772;9.154;2023-04-15T23:50:15;97898.91;;;12.77;94.52
18850;BME280;4989;48.772;9.154;2023-04-15T23:55:18;97902.97;;;13.20;100.00
